ESNB weather

Sollefteå Airport
Sollefteå, Västernorrlands län, Sweden

Public forecast

Using degrees Celsius for public forecast. Weather courtesy of forecast.io.

METAR (pilot weather report)

Closest report is Kramfors Sollefteå Airport, 22.5 nm (41.7 km) ESE. Retrieved 2019/08/25 15:20 UTC (14 minutes ago):

ESNK 251520Z AUTO 26009KT 9999 BKN090/// 24/11 Q1017

TAF (pilot weather forecast)

Forecast is more than 12 hours old.

Closest forecast is Kramfors Sollefteå Airport, 22.5 nm (41.7 km) ESE. Retrieved 2015/10/08 12:00 UTC (4 years ago):

TAF ESNK 081130Z 0812/0824 18005KT CAVOK PROB40 0820/0824 4000 BR